createdAt,value
2018-03-16T00:02:16.869Z,94.43
2018-03-16T00:04:46.173Z,94.23
2018-03-16T00:07:20.602Z,94.12
2018-03-16T00:09:55.509Z,93.62
2018-03-16T00:12:24.908Z,93.72
2018-03-16T00:14:54.842Z,93.96
2018-03-16T00:17:25.241Z,93.98
2018-03-16T00:19:55.081Z,94.49
2018-03-16T00:22:35.753Z,95.24
2018-03-16T00:25:08.398Z,95.77
2018-03-16T00:27:37.297Z,96.11
2018-03-16T00:30:06.284Z,97.24
2018-03-16T00:32:35.317Z,97.79
2018-03-16T00:35:05.195Z,98.01
2018-03-16T00:37:34.091Z,98.12
2018-03-16T00:40:03.952Z,97.94
2018-03-16T00:42:33.134Z,97.69
2018-03-16T00:45:02.226Z,98.68
2018-03-16T00:47:32.120Z,98.46
2018-03-16T00:50:02.042Z,98.60
2018-03-16T00:52:31.024Z,98.48
2018-03-16T00:55:00.665Z,98.75
2018-03-16T00:57:29.830Z,98.80
2018-03-16T00:59:58.824Z,99.65
2018-03-16T01:02:27.844Z,99.09
2018-03-16T01:04:56.808Z,100.00
2018-03-16T01:07:25.841Z,100.00
2018-03-16T01:09:57.661Z,100.00
2018-03-16T01:12:26.880Z,100.00
2018-03-16T01:14:55.853Z,100.00
2018-03-16T01:17:25.069Z,99.91
2018-03-16T01:19:54.048Z,99.24
2018-03-16T01:22:23.040Z,99.06
2018-03-16T01:24:53.775Z,98.89
2018-03-16T01:27:22.669Z,99.60
2018-03-16T01:29:51.692Z,100.00
2018-03-16T01:32:22.803Z,100.00
2018-03-16T01:34:51.802Z,100.00
2018-03-16T01:37:20.791Z,100.00
2018-03-16T01:39:49.788Z,100.00
2018-03-16T01:42:19.804Z,100.00
2018-03-16T01:44:48.701Z,100.00
2018-03-16T01:47:19.436Z,100.00
2018-03-16T01:49:48.396Z,100.00
2018-03-16T01:52:18.168Z,100.00
2018-03-16T01:54:47.125Z,100.00
2018-03-16T01:57:16.223Z,100.00
2018-03-16T01:59:45.068Z,100.00
2018-03-16T02:02:15.042Z,100.00
2018-03-16T02:04:44.021Z,100.00
2018-03-16T02:07:13.020Z,100.00
2018-03-16T02:12:16.859Z,100.00
2018-03-16T02:14:45.841Z,100.00
2018-03-16T02:17:14.876Z,100.00
2018-03-16T02:19:44.074Z,100.00
2018-03-16T02:22:12.975Z,100.00
2018-03-16T02:24:41.916Z,100.00
2018-03-16T02:27:11.014Z,100.00
2018-03-16T02:29:40.764Z,100.00
2018-03-16T02:32:11.600Z,100.00
2018-03-16T02:34:40.527Z,100.00
2018-03-16T02:37:09.549Z,100.00
2018-03-16T02:39:38.537Z,100.00
2018-03-16T02:42:07.640Z,100.00
2018-03-16T02:44:36.671Z,100.00
2018-03-16T02:47:05.729Z,100.00
2018-03-16T02:49:34.770Z,100.00
2018-03-16T02:52:03.710Z,100.00
2018-03-16T02:54:34.636Z,100.00
2018-03-16T02:57:03.687Z,100.00
2018-03-16T02:59:32.617Z,100.00
2018-03-16T03:02:01.741Z,100.00
2018-03-16T03:04:30.882Z,100.00
2018-03-16T03:06:59.807Z,100.00
2018-03-16T03:09:31.396Z,100.00
2018-03-16T03:12:01.096Z,100.00
2018-03-16T03:14:30.188Z,100.00
2018-03-16T03:17:00.726Z,100.00
2018-03-16T03:19:29.732Z,100.00
2018-03-16T03:21:59.116Z,100.00
2018-03-16T03:27:02.637Z,99.52
2018-03-16T03:29:31.733Z,98.58
2018-03-16T03:32:07.749Z,97.47
2018-03-16T03:34:36.646Z,97.25
2018-03-16T03:37:05.742Z,96.83
2018-03-16T03:39:34.785Z,96.13
2018-03-16T03:42:04.138Z,96.17
2018-03-16T03:44:33.094Z,95.85
2018-03-16T03:47:03.027Z,95.10
2018-03-16T03:49:32.042Z,95.01
2018-03-16T03:52:01.338Z,94.81
2018-03-16T03:54:30.430Z,94.50
2018-03-16T03:56:59.880Z,93.99
2018-03-16T03:59:28.939Z,93.16
2018-03-16T04:02:00.650Z,93.03
2018-03-16T04:04:29.826Z,92.90
2018-03-16T04:06:58.828Z,92.89
2018-03-16T04:09:29.570Z,92.67
2018-03-16T04:11:58.829Z,92.88
2018-03-16T04:14:28.532Z,93.33
2018-03-16T04:16:58.283Z,93.50
2018-03-16T04:19:27.542Z,93.62
2018-03-16T04:21:56.643Z,94.04
2018-03-16T04:24:25.827Z,93.82
2018-03-16T04:26:54.865Z,93.44
2018-03-16T04:29:24.439Z,93.67
2018-03-16T04:31:53.538Z,93.82
2018-03-16T04:34:23.472Z,95.24
2018-03-16T04:36:52.555Z,95.61
2018-03-16T04:39:27.787Z,95.58
2018-03-16T04:41:56.822Z,95.60
2018-03-16T04:44:26.291Z,96.13
2018-03-16T04:46:56.307Z,96.65
2018-03-16T04:49:25.748Z,97.29
2018-03-16T04:51:54.967Z,97.05
2018-03-16T04:54:24.075Z,96.53
2018-03-16T04:56:53.146Z,96.27
2018-03-16T04:59:22.211Z,96.39
2018-03-16T05:01:54.393Z,95.85
2018-03-16T05:04:23.461Z,95.52
2018-03-16T05:06:53.379Z,95.44
2018-03-16T05:09:25.747Z,95.94
2018-03-16T05:11:54.747Z,95.75
2018-03-16T05:14:23.951Z,95.02
2018-03-16T05:16:59.799Z,93.78
2018-03-16T05:19:28.692Z,93.68
2018-03-16T05:21:57.579Z,93.13
2018-03-16T05:24:27.758Z,92.40
2018-03-16T05:26:56.896Z,92.71
2018-03-16T05:29:25.996Z,91.56
2018-03-16T05:31:58.164Z,88.64
2018-03-16T05:34:27.285Z,87.18
2018-03-16T05:36:56.260Z,85.48
2018-03-16T05:39:25.998Z,85.90
2018-03-16T05:41:54.966Z,86.95
2018-03-16T05:44:24.242Z,85.63
2018-03-16T05:49:28.020Z,80.92
2018-03-16T05:51:57.302Z,78.81
2018-03-16T05:54:26.333Z,75.54
2018-03-16T05:56:55.281Z,72.86
2018-03-16T05:59:24.176Z,73.66
2018-03-16T06:01:54.029Z,72.73
2018-03-16T06:04:23.084Z,71.45
2018-03-16T06:06:51.977Z,73.95
2018-03-16T06:09:21.002Z,73.72
2018-03-16T06:11:50.875Z,74.00
2018-03-16T06:14:19.790Z,72.04
2018-03-16T06:16:52.035Z,67.01
2018-03-16T06:19:21.862Z,62.79
2018-03-16T06:21:50.780Z,63.16
2018-03-16T06:24:20.846Z,63.44
2018-03-16T06:26:50.000Z,63.82
2018-03-16T06:29:19.020Z,63.97
2018-03-16T06:31:48.851Z,61.76
2018-03-16T06:34:17.967Z,60.82
2018-03-16T06:36:47.985Z,60.43
2018-03-16T06:39:17.642Z,58.88
2018-03-16T06:41:46.691Z,59.96
2018-03-16T06:44:16.648Z,59.67
2018-03-16T06:46:46.670Z,59.71
2018-03-16T06:49:16.169Z,59.72
2018-03-16T06:51:45.286Z,62.04
2018-03-16T06:54:17.195Z,60.92
2018-03-16T06:56:47.413Z,60.08
2018-03-16T06:59:16.378Z,60.48
2018-03-16T07:01:46.288Z,61.87
2018-03-16T07:04:15.314Z,64.25
2018-03-16T07:06:44.510Z,68.45
2018-03-16T07:09:20.271Z,70.77
2018-03-16T07:11:50.076Z,73.25
2018-03-16T07:14:19.079Z,74.92
2018-03-16T07:16:50.634Z,77.00
2018-03-16T07:19:20.442Z,77.47
2018-03-16T07:21:49.439Z,77.84
2018-03-16T07:24:19.352Z,77.94
2018-03-16T07:26:51.524Z,77.79
2018-03-16T07:31:57.396Z,77.47
2018-03-16T07:34:28.878Z,77.55
2018-03-16T07:36:57.946Z,77.55
2018-03-16T07:39:28.211Z,78.19
2018-03-16T07:41:57.208Z,77.44
2018-03-16T07:44:27.028Z,77.25
2018-03-16T07:46:56.959Z,76.87
2018-03-16T07:49:26.086Z,77.02
2018-03-16T07:51:55.075Z,77.10
2018-03-16T07:54:24.674Z,78.06
2018-03-16T07:56:54.506Z,78.82
2018-03-16T07:59:23.597Z,78.18
2018-03-16T08:01:52.672Z,78.86
2018-03-16T08:04:23.526Z,79.06
2018-03-16T08:06:52.881Z,78.63
2018-03-16T08:09:21.915Z,78.02
2018-03-16T08:11:50.945Z,76.54
2018-03-16T08:14:20.764Z,75.38
2018-03-16T08:16:49.867Z,73.72
2018-03-16T08:19:18.788Z,73.26
2018-03-16T08:21:47.818Z,72.28
2018-03-16T08:24:16.912Z,71.03
2018-03-16T08:26:45.903Z,69.90
2018-03-16T08:29:14.879Z,68.61
2018-03-16T08:31:43.859Z,69.08
2018-03-16T08:34:12.950Z,68.72
2018-03-16T08:36:42.794Z,69.93
2018-03-16T08:39:11.924Z,69.70
2018-03-16T08:41:41.004Z,71.80
2018-03-16T08:44:11.935Z,70.47
2018-03-16T08:46:41.018Z,69.59
2018-03-16T08:49:10.719Z,70.60
2018-03-16T08:51:39.849Z,69.51
2018-03-16T08:54:09.554Z,67.91
2018-03-16T08:56:39.349Z,68.13
2018-03-16T08:59:09.131Z,68.08
2018-03-16T09:01:38.067Z,67.74
2018-03-16T09:04:06.967Z,68.21
2018-03-16T09:06:37.753Z,67.21
2018-03-16T09:09:06.797Z,68.03
2018-03-16T09:11:36.617Z,68.50
2018-03-16T09:14:06.606Z,69.69
2018-03-16T09:16:35.569Z,68.73
2018-03-16T09:19:06.388Z,69.07
2018-03-16T09:21:37.646Z,68.96
2018-03-16T09:24:06.747Z,70.18
2018-03-16T09:26:35.791Z,70.41
2018-03-16T09:29:06.682Z,70.64
2018-03-16T09:31:35.645Z,71.07
2018-03-16T09:34:04.680Z,72.13
2018-03-16T09:36:34.184Z,72.27
2018-03-16T09:39:03.214Z,72.36
2018-03-16T09:41:33.136Z,71.79
2018-03-16T09:44:02.130Z,71.32
2018-03-16T09:46:31.015Z,71.61
2018-03-16T09:49:00.950Z,71.11
2018-03-16T09:54:04.389Z,69.30
2018-03-16T09:56:33.552Z,68.75
2018-03-16T09:59:05.109Z,69.40
2018-03-16T10:01:35.225Z,68.44
2018-03-16T10:04:04.222Z,66.61
2018-03-16T10:06:33.213Z,65.45
2018-03-16T10:09:02.355Z,64.85
2018-03-16T10:11:31.665Z,64.13
2018-03-16T10:14:01.615Z,63.23
2018-03-16T10:16:30.731Z,63.60
2018-03-16T10:19:00.092Z,63.75
2018-03-16T10:21:30.108Z,65.06
2018-03-16T10:24:00.050Z,66.50
2018-03-16T10:26:29.060Z,67.47
2018-03-16T10:28:58.875Z,68.08
2018-03-16T10:31:29.927Z,68.46
2018-03-16T10:33:59.728Z,68.17
2018-03-16T10:36:28.862Z,67.58
2018-03-16T10:38:57.868Z,67.81
2018-03-16T10:41:26.810Z,67.68
2018-03-16T10:43:55.804Z,68.66
2018-03-16T10:46:24.948Z,68.38
2018-03-16T10:48:55.805Z,67.43
2018-03-16T10:51:25.958Z,65.83
2018-03-16T10:53:54.848Z,65.97
2018-03-16T10:56:23.741Z,66.43
2018-03-16T10:58:52.846Z,66.59
2018-03-16T11:01:22.026Z,66.52
2018-03-16T11:03:50.973Z,67.17
2018-03-16T11:06:29.096Z,65.58
2018-03-16T11:08:58.035Z,64.91
2018-03-16T11:11:27.029Z,65.92
2018-03-16T11:13:58.491Z,65.31
2018-03-16T11:16:27.676Z,65.29
2018-03-16T11:18:56.669Z,65.30
2018-03-16T11:21:25.725Z,66.71
2018-03-16T11:23:55.729Z,66.60
2018-03-16T11:26:24.678Z,66.69
2018-03-16T11:28:55.341Z,66.65
2018-03-16T11:31:24.306Z,66.50
2018-03-16T11:33:53.599Z,67.17
2018-03-16T11:36:25.335Z,66.83
2018-03-16T11:38:54.325Z,66.64
2018-03-16T11:41:23.419Z,67.76
2018-03-16T11:43:54.261Z,67.23
2018-03-16T11:46:23.358Z,69.11
2018-03-16T11:48:53.420Z,68.10
2018-03-16T11:51:22.630Z,67.40
2018-03-16T11:53:53.418Z,68.11
2018-03-16T11:56:28.245Z,68.40
2018-03-16T11:58:58.166Z,68.44
2018-03-16T12:01:34.283Z,68.05
2018-03-16T12:04:09.211Z,68.18
2018-03-16T12:06:47.486Z,66.99
2018-03-16T12:09:18.089Z,68.02
2018-03-16T12:11:47.073Z,67.22
2018-03-16T12:14:17.086Z,67.69
2018-03-16T12:16:46.197Z,68.53
2018-03-16T12:19:15.484Z,69.30
2018-03-16T12:21:44.583Z,70.26
2018-03-16T12:24:13.567Z,70.83
2018-03-16T12:26:42.598Z,71.79
2018-03-16T12:29:14.330Z,72.15
2018-03-16T12:31:43.930Z,72.32
2018-03-16T12:34:13.027Z,72.92
2018-03-16T12:36:43.102Z,73.28
2018-03-16T12:39:12.199Z,74.31
2018-03-16T12:41:41.095Z,74.32
2018-03-16T12:44:11.432Z,74.39
2018-03-16T12:46:40.456Z,73.59
2018-03-16T12:49:09.565Z,73.93
2018-03-16T12:51:42.320Z,75.08
2018-03-16T12:54:12.147Z,75.12
2018-03-16T12:56:41.179Z,76.38
2018-03-16T12:59:10.068Z,77.13
2018-03-16T13:01:39.493Z,77.21
2018-03-16T13:04:08.575Z,77.78
2018-03-16T13:06:38.679Z,77.34
2018-03-16T13:09:08.259Z,76.90
2018-03-16T13:11:37.462Z,77.24
2018-03-16T13:14:08.137Z,76.58
2018-03-16T13:16:37.807Z,76.62
2018-03-16T13:19:07.768Z,75.97
2018-03-16T13:24:11.399Z,76.08
2018-03-16T13:26:40.598Z,75.50
2018-03-16T13:29:09.646Z,75.18
2018-03-16T13:31:39.194Z,74.44
2018-03-16T13:34:08.874Z,73.96
2018-03-16T13:36:39.024Z,74.15
2018-03-16T13:39:08.124Z,73.66
2018-03-16T13:41:37.252Z,73.42
2018-03-16T13:44:06.496Z,73.11
2018-03-16T13:46:35.437Z,73.44
2018-03-16T13:49:05.659Z,73.55
2018-03-16T13:51:36.321Z,73.70
2018-03-16T13:54:05.341Z,74.16
2018-03-16T13:56:34.488Z,74.31
2018-03-16T13:59:03.579Z,74.11
2018-03-16T14:01:32.576Z,73.99
2018-03-16T14:04:01.567Z,74.02
2018-03-16T14:06:31.660Z,73.88
2018-03-16T14:09:00.657Z,74.57
2018-03-16T14:11:31.030Z,75.40
2018-03-16T14:14:00.204Z,75.21
2018-03-16T14:16:29.402Z,74.80
2018-03-16T14:18:58.555Z,74.46
2018-03-16T14:21:27.580Z,73.78
2018-03-16T14:23:57.149Z,72.74
2018-03-16T14:26:26.199Z,71.91
2018-03-16T14:28:56.047Z,70.93
2018-03-16T14:31:25.020Z,70.27
2018-03-16T14:33:54.190Z,70.41
2018-03-16T14:36:23.305Z,70.34
2018-03-16T14:38:52.293Z,70.63
2018-03-16T14:41:21.339Z,71.19
2018-03-16T14:43:50.379Z,71.80
2018-03-16T14:46:19.586Z,72.42
2018-03-16T14:48:48.683Z,72.42
2018-03-16T14:53:52.204Z,73.14
2018-03-16T14:56:22.832Z,73.14
2018-03-16T14:58:51.943Z,73.05
2018-03-16T15:01:22.056Z,73.29
2018-03-16T15:03:51.231Z,73.16
2018-03-16T15:06:21.266Z,73.30
2018-03-16T15:08:50.317Z,73.12
2018-03-16T15:11:19.271Z,72.17
2018-03-16T15:13:48.829Z,72.56
2018-03-16T15:16:18.601Z,72.87
2018-03-16T15:18:47.817Z,72.62
2018-03-16T15:21:16.871Z,72.96
2018-03-16T15:23:47.756Z,73.33
2018-03-16T15:26:16.727Z,73.24
2018-03-16T15:28:46.642Z,73.89
2018-03-16T15:31:15.542Z,74.42
2018-03-16T15:33:44.502Z,74.93
2018-03-16T15:36:14.638Z,74.72
2018-03-16T15:38:43.793Z,74.67
2018-03-16T15:41:12.819Z,74.71
2018-03-16T15:43:44.510Z,74.81
2018-03-16T15:46:13.596Z,74.47
2018-03-16T15:48:42.659Z,74.30
2018-03-16T15:51:11.800Z,74.25
2018-03-16T15:53:40.741Z,74.58
2018-03-16T15:56:09.679Z,74.16
2018-03-16T15:58:43.044Z,74.41
2018-03-16T16:01:12.240Z,73.95
2018-03-16T16:03:41.451Z,74.47
2018-03-16T16:06:10.523Z,74.99
2018-03-16T16:08:40.390Z,75.03
2018-03-16T16:11:10.308Z,75.03
2018-03-16T16:13:42.015Z,75.13
2018-03-16T16:16:11.014Z,75.71
2018-03-16T16:18:40.731Z,75.55
2018-03-16T16:21:09.979Z,74.82
2018-03-16T16:23:38.963Z,74.73
2018-03-16T16:26:08.744Z,74.47
2018-03-16T16:28:43.577Z,73.94
2018-03-16T16:31:12.557Z,74.64
2018-03-16T16:33:41.451Z,74.65
2018-03-16T16:38:47.824Z,74.98
2018-03-16T16:41:16.728Z,75.00
2018-03-16T16:43:46.090Z,74.81
2018-03-16T16:48:50.712Z,75.13
2018-03-16T16:51:19.620Z,75.07
2018-03-16T16:53:48.660Z,75.33
2018-03-16T16:58:53.820Z,76.35
2018-03-16T17:01:24.341Z,76.65
2018-03-16T17:03:53.850Z,76.84
2018-03-16T17:06:25.719Z,77.25
2018-03-16T17:08:54.709Z,77.14
2018-03-16T17:11:23.703Z,77.84
2018-03-16T17:13:52.795Z,78.40
2018-03-16T17:16:22.619Z,79.00
2018-03-16T17:18:51.717Z,79.74
2018-03-16T17:21:20.905Z,80.02
2018-03-16T17:23:49.849Z,80.50
2018-03-16T17:26:18.826Z,81.42
2018-03-16T17:28:48.101Z,81.69
2018-03-16T17:31:17.290Z,82.32
2018-03-16T17:33:47.818Z,82.11
2018-03-16T17:36:16.937Z,81.78
2018-03-16T17:38:46.003Z,82.16
2018-03-16T17:41:15.114Z,82.39
2018-03-16T17:43:44.381Z,82.68
2018-03-16T17:46:13.351Z,83.01
2018-03-16T17:48:43.221Z,82.97
2018-03-16T17:51:12.419Z,82.60
2018-03-16T17:53:41.773Z,82.54
2018-03-16T17:56:11.371Z,82.95
2018-03-16T17:58:40.582Z,83.13
2018-03-16T18:01:09.933Z,83.17
2018-03-16T18:03:38.948Z,83.43
2018-03-16T18:06:10.085Z,83.26
2018-03-16T18:08:40.950Z,83.03
2018-03-16T18:11:10.914Z,83.30
2018-03-16T18:13:41.397Z,83.12
2018-03-16T18:16:10.797Z,82.81
2018-03-16T18:18:41.661Z,83.28
2018-03-16T18:21:10.690Z,83.01
2018-03-16T18:23:39.785Z,82.83
2018-03-16T18:26:09.535Z,82.65
2018-03-16T18:28:38.586Z,82.62
2018-03-16T18:31:08.411Z,82.42
2018-03-16T18:33:37.725Z,82.15
2018-03-16T18:36:06.699Z,82.26
2018-03-16T18:38:36.259Z,82.26
2018-03-16T18:41:06.444Z,82.57
2018-03-16T18:43:36.464Z,82.76
2018-03-16T18:46:05.557Z,82.68
2018-03-16T18:48:38.217Z,82.63
2018-03-16T18:51:08.039Z,82.67
2018-03-16T18:53:37.189Z,82.58
2018-03-16T18:56:06.227Z,82.28
2018-03-16T18:58:35.209Z,82.15
2018-03-16T19:01:04.320Z,82.11
2018-03-16T19:06:08.284Z,82.01
2018-03-16T19:08:37.248Z,82.17
2018-03-16T19:11:06.338Z,82.43
2018-03-16T19:13:35.637Z,82.78
2018-03-16T19:16:04.926Z,82.46
2018-03-16T19:18:34.044Z,82.81
2018-03-16T19:21:03.237Z,82.73
2018-03-16T19:23:32.891Z,82.75
2018-03-16T19:26:02.142Z,82.47
2018-03-16T19:28:31.576Z,82.23
2018-03-16T19:31:00.761Z,82.05
2018-03-16T19:33:30.822Z,81.88
2018-03-16T19:36:00.785Z,81.92
2018-03-16T19:38:29.772Z,81.83
2018-03-16T19:40:59.736Z,81.99
2018-03-16T19:43:29.545Z,82.18
2018-03-16T19:45:58.568Z,82.24
2018-03-16T19:51:02.267Z,82.78
2018-03-16T19:53:31.181Z,82.72
2018-03-16T19:56:00.563Z,82.43
2018-03-16T19:58:29.612Z,82.41
2018-03-16T20:01:00.189Z,82.47
2018-03-16T20:03:30.139Z,82.48
2018-03-16T20:05:59.199Z,82.48
2018-03-16T20:08:28.253Z,82.58
2018-03-16T20:11:02.404Z,82.62
2018-03-16T20:13:31.466Z,82.75
2018-03-16T20:16:00.557Z,82.74
2018-03-16T20:18:30.885Z,82.82
2018-03-16T20:20:59.832Z,82.94
2018-03-16T20:23:29.899Z,82.94
2018-03-16T20:26:00.733Z,83.58
2018-03-16T20:28:29.839Z,83.75
2018-03-16T20:30:59.369Z,83.43
2018-03-16T20:33:28.640Z,83.31
2018-03-16T20:35:57.728Z,83.76
2018-03-16T20:38:26.818Z,83.91
2018-03-16T20:40:58.551Z,83.75
2018-03-16T20:43:27.585Z,83.36
2018-03-16T20:45:56.719Z,84.13
2018-03-16T20:48:25.928Z,84.68
2018-03-16T20:50:55.792Z,84.45
2018-03-16T20:53:24.901Z,84.33
2018-03-16T20:58:29.562Z,84.89
2018-03-16T21:00:58.634Z,84.80
2018-03-16T21:03:27.777Z,85.28
2018-03-16T21:05:56.670Z,84.95
2018-03-16T21:08:26.407Z,85.10
2018-03-16T21:10:55.527Z,85.09
2018-03-16T21:13:24.554Z,85.17
2018-03-16T21:15:53.516Z,85.47
2018-03-16T21:18:22.610Z,85.30
2018-03-16T21:20:51.660Z,85.20
2018-03-16T21:23:20.583Z,85.83
2018-03-16T21:25:49.526Z,85.91
2018-03-16T21:28:19.134Z,85.79
2018-03-16T21:30:48.914Z,85.63
2018-03-16T21:33:18.213Z,85.74
2018-03-16T21:35:47.345Z,86.41
2018-03-16T21:38:16.427Z,86.45
2018-03-16T21:40:45.490Z,86.62
2018-03-16T21:43:14.535Z,86.61
2018-03-16T21:45:44.418Z,86.28
2018-03-16T21:48:16.019Z,86.26
2018-03-16T21:50:45.597Z,86.28
2018-03-16T21:53:14.572Z,86.39
2018-03-16T21:55:43.866Z,86.92
2018-03-16T21:58:12.966Z,86.64
2018-03-16T22:00:41.966Z,86.51
2018-03-16T22:03:11.168Z,86.59
2018-03-16T22:05:40.208Z,86.43
2018-03-16T22:08:10.275Z,86.15
2018-03-16T22:10:39.485Z,85.41
2018-03-16T22:13:08.472Z,84.76
2018-03-16T22:15:37.518Z,83.98
2018-03-16T22:20:40.876Z,83.10
2018-03-16T22:23:09.956Z,82.91
2018-03-16T22:25:39.125Z,82.78
2018-03-16T22:30:43.288Z,81.33
2018-03-16T22:33:12.302Z,80.87
2018-03-16T22:35:42.620Z,80.52
2018-03-16T22:38:11.606Z,80.25
2018-03-16T22:40:41.225Z,80.20
2018-03-16T22:43:10.315Z,80.22
2018-03-16T22:45:39.415Z,79.97
2018-03-16T22:48:09.084Z,79.84
2018-03-16T22:50:38.869Z,80.16
2018-03-16T22:53:12.848Z,80.14
2018-03-16T22:55:41.843Z,79.60
2018-03-16T22:58:12.388Z,79.19
2018-03-16T23:00:41.572Z,78.63
2018-03-16T23:03:10.725Z,78.25
2018-03-16T23:05:39.768Z,77.99
2018-03-16T23:08:12.858Z,77.74
2018-03-16T23:10:41.717Z,78.14
2018-03-16T23:13:11.255Z,77.02
2018-03-16T23:15:40.454Z,76.92
2018-03-16T23:18:09.548Z,76.84
2018-03-16T23:20:39.678Z,76.04
2018-03-16T23:23:08.863Z,75.99
2018-03-16T23:25:37.962Z,75.12
2018-03-16T23:28:06.955Z,74.35
2018-03-16T23:30:36.266Z,74.59
2018-03-16T23:33:05.456Z,73.80
2018-03-16T23:35:34.560Z,73.15
2018-03-16T23:38:04.467Z,73.30
2018-03-16T23:40:33.341Z,73.15
2018-03-16T23:43:02.190Z,72.43
2018-03-16T23:45:31.454Z,72.42
2018-03-16T23:48:00.445Z,72.16
2018-03-16T23:50:29.440Z,71.99
2018-03-16T23:52:59.350Z,72.16
2018-03-16T23:55:29.270Z,71.87
2018-03-16T23:57:59.074Z,71.48
